Amberson, Pennsylvania
Current Conditions -  °F | °C
As of 8:53 AM on Friday 31 Oct 2014 (Local Time) from KHGR Reporting Station
Overcast Overcast  
Wind Chill: 45°   Ceiling: 5500
Heat Index: 45°   Visibility: 10mi
Dew Point: 38°   Wind: 0mph
Humidity: 76%   Direction: NA
Pressure: 29.99"   Gusts: NA
Location:  40.17°N, 77.68°W
Report Text: KHGR 311253Z 00000KT 10SM OVC055 07/03 A2999 RMK AO2 SLP167 T00720033
Loading
Personal Weather Stations






























Interactive Weather Map
Tropical Storm Tracking
New forecast layout! Learn more

10-Day Weather Forecast

Advertisements
Track Severe Weather on mobile